sensor_id;sensor_type;location;lat;lon;timestamp;P1;durP1;ratioP1;P2;durP2;ratioP2
23730;SDS011;12046;44.702;10.622;2022-11-13T00:02:13;21.25;;;17.40;;
23730;SDS011;12046;44.702;10.622;2022-11-13T00:04:40;21.60;;;17.10;;
23730;SDS011;12046;44.702;10.622;2022-11-13T00:07:06;20.05;;;17.33;;
23730;SDS011;12046;44.702;10.622;2022-11-13T00:09:32;21.55;;;17.73;;
23730;SDS011;12046;44.702;10.622;2022-11-13T00:11:57;20.55;;;17.30;;
23730;SDS011;12046;44.702;10.622;2022-11-13T00:14:23;21.35;;;17.40;;
23730;SDS011;12046;44.702;10.622;2022-11-13T00:16:49;21.20;;;18.90;;
23730;SDS011;12046;44.702;10.622;2022-11-13T00:19:15;21.67;;;16.95;;
23730;SDS011;12046;44.702;10.622;2022-11-13T00:21:41;20.42;;;17.85;;
23730;SDS011;12046;44.702;10.622;2022-11-13T00:24:07;17.63;;;14.50;;
23730;SDS011;12046;44.702;10.622;2022-11-13T00:26:33;16.70;;;13.20;;
23730;SDS011;12046;44.702;10.622;2022-11-13T00:29:02;14.48;;;12.75;;
23730;SDS011;12046;44.702;10.622;2022-11-13T00:31:29;19.02;;;13.88;;
23730;SDS011;12046;44.702;10.622;2022-11-13T00:33:56;17.13;;;13.80;;
23730;SDS011;12046;44.702;10.622;2022-11-13T00:36:25;16.65;;;14.32;;
23730;SDS011;12046;44.702;10.622;2022-11-13T00:38:52;16.83;;;13.70;;
23730;SDS011;12046;44.702;10.622;2022-11-13T00:41:19;15.02;;;12.57;;
23730;SDS011;12046;44.702;10.622;2022-11-13T00:43:46;17.35;;;12.98;;
23730;SDS011;12046;44.702;10.622;2022-11-13T00:46:11;17.30;;;13.13;;
23730;SDS011;12046;44.702;10.622;2022-11-13T00:48:38;17.45;;;13.75;;
23730;SDS011;12046;44.702;10.622;2022-11-13T00:51:04;16.85;;;12.13;;
23730;SDS011;12046;44.702;10.622;2022-11-13T00:53:30;16.00;;;12.45;;
23730;SDS011;12046;44.702;10.622;2022-11-13T00:55:56;16.45;;;12.25;;
23730;SDS011;12046;44.702;10.622;2022-11-13T00:58:24;16.88;;;13.73;;
23730;SDS011;12046;44.702;10.622;2022-11-13T01:00:50;16.92;;;12.73;;
23730;SDS011;12046;44.702;10.622;2022-11-13T01:03:17;18.48;;;13.45;;
23730;SDS011;12046;44.702;10.622;2022-11-13T01:05:45;18.13;;;15.13;;
23730;SDS011;12046;44.702;10.622;2022-11-13T01:08:12;20.73;;;16.63;;
23730;SDS011;12046;44.702;10.622;2022-11-13T01:10:41;19.30;;;15.90;;
23730;SDS011;12046;44.702;10.622;2022-11-13T01:13:11;23.17;;;18.60;;
23730;SDS011;12046;44.702;10.622;2022-11-13T01:15:41;23.63;;;18.00;;
23730;SDS011;12046;44.702;10.622;2022-11-13T01:18:08;22.27;;;19.13;;
23730;SDS011;12046;44.702;10.622;2022-11-13T01:20:34;18.38;;;14.05;;
23730;SDS011;12046;44.702;10.622;2022-11-13T01:23:00;19.35;;;14.88;;
23730;SDS011;12046;44.702;10.622;2022-11-13T01:25:27;16.52;;;13.68;;
23730;SDS011;12046;44.702;10.622;2022-11-13T01:27:55;20.05;;;16.63;;
23730;SDS011;12046;44.702;10.622;2022-11-13T01:30:21;17.27;;;14.07;;
23730;SDS011;12046;44.702;10.622;2022-11-13T01:32:48;40.83;;;29.40;;
23730;SDS011;12046;44.702;10.622;2022-11-13T01:35:14;25.52;;;20.90;;
23730;SDS011;12046;44.702;10.622;2022-11-13T01:37:42;20.33;;;16.55;;
23730;SDS011;12046;44.702;10.622;2022-11-13T01:40:10;23.67;;;17.92;;
23730;SDS011;12046;44.702;10.622;2022-11-13T01:42:37;17.85;;;13.85;;
23730;SDS011;12046;44.702;10.622;2022-11-13T01:45:48;20.75;;;14.73;;
23730;SDS011;12046;44.702;10.622;2022-11-13T01:48:10;19.13;;;14.73;;
23730;SDS011;12046;44.702;10.622;2022-11-13T01:50:39;20.88;;;14.75;;
23730;SDS011;12046;44.702;10.622;2022-11-13T01:53:08;23.08;;;16.55;;
23730;SDS011;12046;44.702;10.622;2022-11-13T01:55:34;21.70;;;16.63;;
23730;SDS011;12046;44.702;10.622;2022-11-13T01:58:14;21.40;;;15.20;;
23730;SDS011;12046;44.702;10.622;2022-11-13T02:00:40;15.90;;;12.52;;
23730;SDS011;12046;44.702;10.622;2022-11-13T02:03:06;14.68;;;11.95;;
23730;SDS011;12046;44.702;10.622;2022-11-13T02:05:32;18.80;;;15.55;;
23730;SDS011;12046;44.702;10.622;2022-11-13T02:07:58;38.38;;;27.23;;
23730;SDS011;12046;44.702;10.622;2022-11-13T02:10:25;28.35;;;22.27;;
23730;SDS011;12046;44.702;10.622;2022-11-13T02:12:54;27.63;;;20.02;;
23730;SDS011;12046;44.702;10.622;2022-11-13T02:15:21;23.02;;;17.77;;
23730;SDS011;12046;44.702;10.622;2022-11-13T02:17:56;16.02;;;12.52;;
23730;SDS011;12046;44.702;10.622;2022-11-13T02:20:30;40.50;;;26.58;;
23730;SDS011;12046;44.702;10.622;2022-11-13T02:25:48;17.60;;;13.15;;
23730;SDS011;12046;44.702;10.622;2022-11-13T02:28:18;14.80;;;12.52;;
23730;SDS011;12046;44.702;10.622;2022-11-13T02:30:47;15.15;;;11.95;;
23730;SDS011;12046;44.702;10.622;2022-11-13T02:33:23;15.55;;;13.18;;
23730;SDS011;12046;44.702;10.622;2022-11-13T02:35:56;16.88;;;12.15;;
23730;SDS011;12046;44.702;10.622;2022-11-13T02:38:23;16.10;;;12.15;;
23730;SDS011;12046;44.702;10.622;2022-11-13T02:40:49;19.00;;;13.60;;
23730;SDS011;12046;44.702;10.622;2022-11-13T02:43:15;15.63;;;13.63;;
23730;SDS011;12046;44.702;10.622;2022-11-13T02:45:41;15.07;;;10.32;;
23730;SDS011;12046;44.702;10.622;2022-11-13T02:48:07;17.20;;;12.15;;
23730;SDS011;12046;44.702;10.622;2022-11-13T02:50:33;14.52;;;12.20;;
23730;SDS011;12046;44.702;10.622;2022-11-13T02:53:01;17.25;;;14.63;;
23730;SDS011;12046;44.702;10.622;2022-11-13T02:55:27;16.48;;;14.77;;
23730;SDS011;12046;44.702;10.622;2022-11-13T02:57:53;15.43;;;12.65;;
23730;SDS011;12046;44.702;10.622;2022-11-13T03:00:19;15.07;;;12.13;;
23730;SDS011;12046;44.702;10.622;2022-11-13T03:02:45;18.15;;;12.73;;
23730;SDS011;12046;44.702;10.622;2022-11-13T03:05:11;17.17;;;13.40;;
23730;SDS011;12046;44.702;10.622;2022-11-13T03:07:37;18.27;;;13.95;;
23730;SDS011;12046;44.702;10.622;2022-11-13T03:10:03;19.83;;;14.52;;
23730;SDS011;12046;44.702;10.622;2022-11-13T03:12:29;18.52;;;13.68;;
23730;SDS011;12046;44.702;10.622;2022-11-13T03:14:55;17.02;;;12.70;;
23730;SDS011;12046;44.702;10.622;2022-11-13T03:17:20;20.02;;;14.55;;
23730;SDS011;12046;44.702;10.622;2022-11-13T03:19:46;16.25;;;12.93;;
23730;SDS011;12046;44.702;10.622;2022-11-13T03:22:12;21.30;;;13.45;;
23730;SDS011;12046;44.702;10.622;2022-11-13T03:24:38;16.17;;;12.27;;
23730;SDS011;12046;44.702;10.622;2022-11-13T03:27:04;15.43;;;12.13;;
23730;SDS011;12046;44.702;10.622;2022-11-13T03:29:30;18.63;;;13.93;;
23730;SDS011;12046;44.702;10.622;2022-11-13T03:31:55;16.42;;;12.75;;
23730;SDS011;12046;44.702;10.622;2022-11-13T03:34:21;16.90;;;12.75;;
23730;SDS011;12046;44.702;10.622;2022-11-13T03:36:47;15.32;;;12.80;;
23730;SDS011;12046;44.702;10.622;2022-11-13T03:39:13;16.08;;;12.80;;
23730;SDS011;12046;44.702;10.622;2022-11-13T03:41:39;14.13;;;11.57;;
23730;SDS011;12046;44.702;10.622;2022-11-13T03:44:05;16.52;;;13.05;;
23730;SDS011;12046;44.702;10.622;2022-11-13T03:46:31;22.13;;;13.23;;
23730;SDS011;12046;44.702;10.622;2022-11-13T03:48:57;16.83;;;12.30;;
23730;SDS011;12046;44.702;10.622;2022-11-13T03:51:23;15.88;;;12.15;;
23730;SDS011;12046;44.702;10.622;2022-11-13T03:53:48;17.67;;;13.95;;
23730;SDS011;12046;44.702;10.622;2022-11-13T03:56:14;16.90;;;12.75;;
23730;SDS011;12046;44.702;10.622;2022-11-13T03:58:40;18.17;;;12.15;;
23730;SDS011;12046;44.702;10.622;2022-11-13T04:01:06;18.98;;;12.98;;
23730;SDS011;12046;44.702;10.622;2022-11-13T04:03:32;15.77;;;11.75;;
23730;SDS011;12046;44.702;10.622;2022-11-13T04:05:58;20.65;;;14.93;;
23730;SDS011;12046;44.702;10.622;2022-11-13T04:08:24;20.58;;;14.77;;
23730;SDS011;12046;44.702;10.622;2022-11-13T04:10:50;15.18;;;12.18;;
23730;SDS011;12046;44.702;10.622;2022-11-13T04:13:16;18.90;;;14.55;;
23730;SDS011;12046;44.702;10.622;2022-11-13T04:15:41;21.42;;;16.15;;
23730;SDS011;12046;44.702;10.622;2022-11-13T04:18:07;19.20;;;15.48;;
23730;SDS011;12046;44.702;10.622;2022-11-13T04:20:33;20.10;;;15.85;;
23730;SDS011;12046;44.702;10.622;2022-11-13T04:22:59;20.83;;;16.10;;
23730;SDS011;12046;44.702;10.622;2022-11-13T04:25:25;18.60;;;15.88;;
23730;SDS011;12046;44.702;10.622;2022-11-13T04:27:51;20.33;;;14.70;;
23730;SDS011;12046;44.702;10.622;2022-11-13T04:30:18;21.35;;;17.00;;
23730;SDS011;12046;44.702;10.622;2022-11-13T04:32:44;20.08;;;14.98;;
23730;SDS011;12046;44.702;10.622;2022-11-13T04:35:10;18.85;;;14.18;;
23730;SDS011;12046;44.702;10.622;2022-11-13T04:37:36;18.15;;;13.57;;
23730;SDS011;12046;44.702;10.622;2022-11-13T04:40:03;19.00;;;13.32;;
23730;SDS011;12046;44.702;10.622;2022-11-13T04:42:29;19.48;;;15.80;;
23730;SDS011;12046;44.702;10.622;2022-11-13T04:47:43;21.20;;;14.77;;
23730;SDS011;12046;44.702;10.622;2022-11-13T04:50:10;20.23;;;15.60;;
23730;SDS011;12046;44.702;10.622;2022-11-13T04:52:36;18.23;;;15.27;;
23730;SDS011;12046;44.702;10.622;2022-11-13T04:55:02;22.70;;;16.23;;
23730;SDS011;12046;44.702;10.622;2022-11-13T04:57:29;21.08;;;17.02;;
23730;SDS011;12046;44.702;10.622;2022-11-13T04:59:58;17.35;;;14.73;;
23730;SDS011;12046;44.702;10.622;2022-11-13T05:02:24;20.92;;;15.65;;
23730;SDS011;12046;44.702;10.622;2022-11-13T05:04:50;21.23;;;16.05;;
23730;SDS011;12046;44.702;10.622;2022-11-13T05:07:16;21.05;;;16.05;;
23730;SDS011;12046;44.702;10.622;2022-11-13T05:09:42;22.73;;;18.10;;
23730;SDS011;12046;44.702;10.622;2022-11-13T05:12:08;24.02;;;19.17;;
23730;SDS011;12046;44.702;10.622;2022-11-13T05:14:34;25.85;;;17.30;;
23730;SDS011;12046;44.702;10.622;2022-11-13T05:17:02;23.77;;;18.83;;
23730;SDS011;12046;44.702;10.622;2022-11-13T05:19:28;25.25;;;19.08;;
23730;SDS011;12046;44.702;10.622;2022-11-13T05:21:55;23.55;;;16.90;;
23730;SDS011;12046;44.702;10.622;2022-11-13T05:24:21;25.63;;;18.70;;
23730;SDS011;12046;44.702;10.622;2022-11-13T05:26:47;25.48;;;18.30;;
23730;SDS011;12046;44.702;10.622;2022-11-13T05:29:12;23.73;;;18.05;;
23730;SDS011;12046;44.702;10.622;2022-11-13T05:31:38;21.50;;;16.10;;
23730;SDS011;12046;44.702;10.622;2022-11-13T05:34:04;24.63;;;17.95;;
23730;SDS011;12046;44.702;10.622;2022-11-13T05:36:30;25.10;;;20.30;;
23730;SDS011;12046;44.702;10.622;2022-11-13T05:38:56;24.73;;;19.42;;
23730;SDS011;12046;44.702;10.622;2022-11-13T05:41:22;27.42;;;21.73;;
23730;SDS011;12046;44.702;10.622;2022-11-13T05:43:49;26.77;;;21.23;;
23730;SDS011;12046;44.702;10.622;2022-11-13T05:46:21;24.50;;;19.42;;
23730;SDS011;12046;44.702;10.622;2022-11-13T05:48:53;26.73;;;20.27;;
23730;SDS011;12046;44.702;10.622;2022-11-13T05:51:24;29.63;;;21.50;;
23730;SDS011;12046;44.702;10.622;2022-11-13T05:53:59;28.40;;;21.95;;
23730;SDS011;12046;44.702;10.622;2022-11-13T05:56:29;31.40;;;23.95;;
23730;SDS011;12046;44.702;10.622;2022-11-13T05:58:57;32.40;;;24.02;;
23730;SDS011;12046;44.702;10.622;2022-11-13T06:01:29;26.02;;;20.13;;
23730;SDS011;12046;44.702;10.622;2022-11-13T06:03:59;33.25;;;25.52;;
23730;SDS011;12046;44.702;10.622;2022-11-13T06:06:26;24.90;;;19.58;;
23730;SDS011;12046;44.702;10.622;2022-11-13T06:08:53;30.48;;;20.85;;
23730;SDS011;12046;44.702;10.622;2022-11-13T06:11:23;27.92;;;20.27;;
23730;SDS011;12046;44.702;10.622;2022-11-13T06:13:50;29.77;;;22.35;;
23730;SDS011;12046;44.702;10.622;2022-11-13T06:16:21;33.33;;;24.02;;
23730;SDS011;12046;44.702;10.622;2022-11-13T06:18:49;34.45;;;25.08;;
23730;SDS011;12046;44.702;10.622;2022-11-13T06:21:17;25.50;;;20.50;;
23730;SDS011;12046;44.702;10.622;2022-11-13T06:23:47;30.15;;;24.00;;
23730;SDS011;12046;44.702;10.622;2022-11-13T06:26:17;31.10;;;23.55;;
23730;SDS011;12046;44.702;10.622;2022-11-13T06:28:45;33.25;;;25.42;;
23730;SDS011;12046;44.702;10.622;2022-11-13T06:31:12;29.60;;;21.42;;
23730;SDS011;12046;44.702;10.622;2022-11-13T06:33:40;32.47;;;25.05;;
23730;SDS011;12046;44.702;10.622;2022-11-13T06:36:09;28.98;;;22.27;;
23730;SDS011;12046;44.702;10.622;2022-11-13T06:38:37;30.50;;;23.83;;
23730;SDS011;12046;44.702;10.622;2022-11-13T06:41:04;32.20;;;24.30;;
23730;SDS011;12046;44.702;10.622;2022-11-13T06:43:31;29.35;;;22.13;;
23730;SDS011;12046;44.702;10.622;2022-11-13T06:45:58;29.40;;;22.45;;
23730;SDS011;12046;44.702;10.622;2022-11-13T06:48:27;28.48;;;22.55;;
23730;SDS011;12046;44.702;10.622;2022-11-13T06:50:53;32.92;;;26.40;;
23730;SDS011;12046;44.702;10.622;2022-11-13T06:53:18;26.92;;;20.60;;
23730;SDS011;12046;44.702;10.622;2022-11-13T06:55:45;28.45;;;24.85;;
23730;SDS011;12046;44.702;10.622;2022-11-13T06:58:13;26.63;;;21.20;;
23730;SDS011;12046;44.702;10.622;2022-11-13T07:00:39;26.98;;;21.83;;
23730;SDS011;12046;44.702;10.622;2022-11-13T07:03:05;27.50;;;23.02;;
23730;SDS011;12046;44.702;10.622;2022-11-13T07:05:39;28.10;;;25.10;;
23730;SDS011;12046;44.702;10.622;2022-11-13T07:08:04;26.10;;;20.70;;
23730;SDS011;12046;44.702;10.622;2022-11-13T07:10:30;29.90;;;26.63;;
23730;SDS011;12046;44.702;10.622;2022-11-13T07:12:59;27.40;;;24.38;;
23730;SDS011;12046;44.702;10.622;2022-11-13T07:15:25;30.25;;;24.27;;
23730;SDS011;12046;44.702;10.622;2022-11-13T07:17:52;27.38;;;23.17;;
23730;SDS011;12046;44.702;10.622;2022-11-13T07:20:18;29.02;;;25.80;;
23730;SDS011;12046;44.702;10.622;2022-11-13T07:22:44;25.75;;;22.90;;
23730;SDS011;12046;44.702;10.622;2022-11-13T07:25:10;29.30;;;26.17;;
23730;SDS011;12046;44.702;10.622;2022-11-13T07:27:35;28.83;;;25.63;;
23730;SDS011;12046;44.702;10.622;2022-11-13T07:30:01;30.33;;;26.20;;
23730;SDS011;12046;44.702;10.622;2022-11-13T07:32:28;26.33;;;22.10;;
23730;SDS011;12046;44.702;10.622;2022-11-13T07:34:53;27.58;;;23.58;;
23730;SDS011;12046;44.702;10.622;2022-11-13T07:37:19;27.77;;;24.80;;
23730;SDS011;12046;44.702;10.622;2022-11-13T07:39:45;25.40;;;21.20;;
23730;SDS011;12046;44.702;10.622;2022-11-13T07:42:11;26.20;;;21.98;;
23730;SDS011;12046;44.702;10.622;2022-11-13T07:44:37;24.02;;;20.60;;
23730;SDS011;12046;44.702;10.622;2022-11-13T07:47:03;21.48;;;18.60;;
23730;SDS011;12046;44.702;10.622;2022-11-13T07:49:29;23.23;;;18.58;;
23730;SDS011;12046;44.702;10.622;2022-11-13T07:51:55;23.33;;;18.77;;
23730;SDS011;12046;44.702;10.622;2022-11-13T07:54:20;23.45;;;18.35;;
23730;SDS011;12046;44.702;10.622;2022-11-13T07:56:46;26.58;;;20.98;;
23730;SDS011;12046;44.702;10.622;2022-11-13T07:59:12;22.33;;;19.48;;
23730;SDS011;12046;44.702;10.622;2022-11-13T08:01:38;20.70;;;17.98;;
23730;SDS011;12046;44.702;10.622;2022-11-13T08:04:04;20.25;;;17.00;;
23730;SDS011;12046;44.702;10.622;2022-11-13T08:06:30;23.15;;;17.80;;
23730;SDS011;12046;44.702;10.622;2022-11-13T08:08:56;21.77;;;17.20;;
23730;SDS011;12046;44.702;10.622;2022-11-13T08:11:22;18.13;;;16.17;;
23730;SDS011;12046;44.702;10.622;2022-11-13T08:13:47;20.35;;;17.67;;
23730;SDS011;12046;44.702;10.622;2022-11-13T08:16:13;22.80;;;18.83;;
23730;SDS011;12046;44.702;10.622;2022-11-13T08:18:39;20.45;;;16.88;;
23730;SDS011;12046;44.702;10.622;2022-11-13T08:21:05;21.50;;;16.88;;
23730;SDS011;12046;44.702;10.622;2022-11-13T08:23:31;21.30;;;17.60;;
23730;SDS011;12046;44.702;10.622;2022-11-13T08:25:57;21.02;;;17.33;;
23730;SDS011;12046;44.702;10.622;2022-11-13T08:28:27;21.83;;;19.52;;
23730;SDS011;12046;44.702;10.622;2022-11-13T08:30:53;19.75;;;17.67;;
23730;SDS011;12046;44.702;10.622;2022-11-13T08:33:19;24.30;;;20.58;;
23730;SDS011;12046;44.702;10.622;2022-11-13T08:35:53;19.52;;;17.42;;
23730;SDS011;12046;44.702;10.622;2022-11-13T08:38:20;26.95;;;23.63;;
23730;SDS011;12046;44.702;10.622;2022-11-13T08:40:47;21.48;;;17.33;;
23730;SDS011;12046;44.702;10.622;2022-11-13T08:43:13;23.63;;;17.95;;
23730;SDS011;12046;44.702;10.622;2022-11-13T08:45:39;22.15;;;16.58;;
23730;SDS011;12046;44.702;10.622;2022-11-13T08:48:06;20.40;;;17.05;;
23730;SDS011;12046;44.702;10.622;2022-11-13T08:50:33;18.83;;;15.38;;
23730;SDS011;12046;44.702;10.622;2022-11-13T08:52:59;18.65;;;16.25;;
23730;SDS011;12046;44.702;10.622;2022-11-13T08:55:26;17.25;;;15.15;;
23730;SDS011;12046;44.702;10.622;2022-11-13T08:57:52;15.48;;;13.82;;
23730;SDS011;12046;44.702;10.622;2022-11-13T09:00:19;15.75;;;13.60;;
23730;SDS011;12046;44.702;10.622;2022-11-13T09:02:45;14.18;;;12.48;;
23730;SDS011;12046;44.702;10.622;2022-11-13T09:05:11;18.98;;;13.68;;
23730;SDS011;12046;44.702;10.622;2022-11-13T09:07:37;15.23;;;12.88;;
23730;SDS011;12046;44.702;10.622;2022-11-13T09:10:03;16.00;;;13.88;;
23730;SDS011;12046;44.702;10.622;2022-11-13T09:12:29;14.73;;;12.88;;
23730;SDS011;12046;44.702;10.622;2022-11-13T09:14:55;14.40;;;12.65;;
23730;SDS011;12046;44.702;10.622;2022-11-13T09:17:21;15.80;;;12.30;;
23730;SDS011;12046;44.702;10.622;2022-11-13T09:19:46;17.48;;;13.02;;
23730;SDS011;12046;44.702;10.622;2022-11-13T09:22:12;16.70;;;12.27;;
23730;SDS011;12046;44.702;10.622;2022-11-13T09:24:38;16.35;;;10.15;;
23730;SDS011;12046;44.702;10.622;2022-11-13T09:27:04;11.63;;;9.70;;
23730;SDS011;12046;44.702;10.622;2022-11-13T09:29:30;10.38;;;8.50;;
23730;SDS011;12046;44.702;10.622;2022-11-13T09:31:56;10.55;;;8.98;;
23730;SDS011;12046;44.702;10.622;2022-11-13T09:34:24;10.27;;;8.23;;
23730;SDS011;12046;44.702;10.622;2022-11-13T09:36:55;10.20;;;9.00;;
23730;SDS011;12046;44.702;10.622;2022-11-13T09:39:21;12.05;;;7.60;;
23730;SDS011;12046;44.702;10.622;2022-11-13T09:41:57;10.50;;;8.32;;
23730;SDS011;12046;44.702;10.622;2022-11-13T09:47:10;12.88;;;9.90;;
23730;SDS011;12046;44.702;10.622;2022-11-13T09:50:12;11.30;;;8.55;;
23730;SDS011;12046;44.702;10.622;2022-11-13T09:52:46;12.77;;;10.65;;
23730;SDS011;12046;44.702;10.622;2022-11-13T09:55:18;10.65;;;9.55;;
23730;SDS011;12046;44.702;10.622;2022-11-13T10:00:41;10.77;;;9.20;;
23730;SDS011;12046;44.702;10.622;2022-11-13T10:06:09;12.10;;;8.65;;
23730;SDS011;12046;44.702;10.622;2022-11-13T10:09:09;16.27;;;9.90;;
23730;SDS011;12046;44.702;10.622;2022-11-13T10:11:45;13.20;;;9.77;;
23730;SDS011;12046;44.702;10.622;2022-11-13T10:17:27;15.27;;;10.23;;
23730;SDS011;12046;44.702;10.622;2022-11-13T10:20:15;12.68;;;9.70;;
23730;SDS011;12046;44.702;10.622;2022-11-13T10:25:39;10.40;;;8.98;;
23730;SDS011;12046;44.702;10.622;2022-11-13T10:28:10;14.50;;;10.18;;
23730;SDS011;12046;44.702;10.622;2022-11-13T10:30:41;10.95;;;9.80;;
23730;SDS011;12046;44.702;10.622;2022-11-13T10:33:08;12.27;;;10.60;;
23730;SDS011;12046;44.702;10.622;2022-11-13T10:35:43;11.90;;;10.00;;
23730;SDS011;12046;44.702;10.622;2022-11-13T10:40:48;11.30;;;9.60;;
23730;SDS011;12046;44.702;10.622;2022-11-13T10:43:19;12.00;;;10.52;;
23730;SDS011;12046;44.702;10.622;2022-11-13T10:45:54;11.73;;;10.05;;
23730;SDS011;12046;44.702;10.622;2022-11-13T10:48:25;11.60;;;10.40;;
23730;SDS011;12046;44.702;10.622;2022-11-13T10:51:03;15.13;;;10.15;;
23730;SDS011;12046;44.702;10.622;2022-11-13T10:53:42;12.77;;;10.18;;
23730;SDS011;12046;44.702;10.622;2022-11-13T10:56:12;14.93;;;10.52;;
23730;SDS011;12046;44.702;10.622;2022-11-13T10:58:38;11.00;;;9.85;;
23730;SDS011;12046;44.702;10.622;2022-11-13T11:01:14;12.30;;;10.10;;
23730;SDS011;12046;44.702;10.622;2022-11-13T11:03:47;9.77;;;8.85;;
23730;SDS011;12046;44.702;10.622;2022-11-13T11:06:14;11.20;;;9.00;;
23730;SDS011;12046;44.702;10.622;2022-11-13T11:08:43;10.52;;;9.38;;
23730;SDS011;12046;44.702;10.622;2022-11-13T11:16:39;10.65;;;9.48;;
23730;SDS011;12046;44.702;10.622;2022-11-13T11:19:14;11.80;;;9.55;;
23730;SDS011;12046;44.702;10.622;2022-11-13T11:21:49;11.35;;;10.20;;
23730;SDS011;12046;44.702;10.622;2022-11-13T11:24:21;14.32;;;10.77;;
23730;SDS011;12046;44.702;10.622;2022-11-13T11:29:36;13.68;;;11.55;;
23730;SDS011;12046;44.702;10.622;2022-11-13T11:32:14;11.70;;;9.88;;
23730;SDS011;12046;44.702;10.622;2022-11-13T11:34:54;12.60;;;10.00;;
23730;SDS011;12046;44.702;10.622;2022-11-13T11:38:10;11.27;;;10.07;;
23730;SDS011;12046;44.702;10.622;2022-11-13T11:41:10;10.48;;;9.40;;
23730;SDS011;12046;44.702;10.622;2022-11-13T11:46:21;10.95;;;9.10;;
23730;SDS011;12046;44.702;10.622;2022-11-13T11:48:49;10.60;;;9.45;;
23730;SDS011;12046;44.702;10.622;2022-11-13T11:51:21;11.45;;;8.90;;
23730;SDS011;12046;44.702;10.622;2022-11-13T11:56:41;11.07;;;9.93;;
23730;SDS011;12046;44.702;10.622;2022-11-13T11:59:38;12.35;;;9.98;;
23730;SDS011;12046;44.702;10.622;2022-11-13T12:10:24;10.93;;;9.75;;
23730;SDS011;12046;44.702;10.622;2022-11-13T12:18:32;10.40;;;9.30;;
23730;SDS011;12046;44.702;10.622;2022-11-13T12:23:52;13.30;;;10.60;;
23730;SDS011;12046;44.702;10.622;2022-11-13T12:26:45;11.63;;;9.77;;
23730;SDS011;12046;44.702;10.622;2022-11-13T12:34:42;13.13;;;9.73;;
23730;SDS011;12046;44.702;10.622;2022-11-13T12:37:12;14.23;;;12.48;;
23730;SDS011;12046;44.702;10.622;2022-11-13T12:42:28;13.45;;;11.38;;
23730;SDS011;12046;44.702;10.622;2022-11-13T12:47:29;11.50;;;9.80;;
23730;SDS011;12046;44.702;10.622;2022-11-13T12:50:03;15.77;;;12.93;;
23730;SDS011;12046;44.702;10.622;2022-11-13T12:52:44;10.68;;;9.57;;
23730;SDS011;12046;44.702;10.622;2022-11-13T12:55:26;11.40;;;10.20;;
23730;SDS011;12046;44.702;10.622;2022-11-13T12:57:53;11.80;;;10.23;;
23730;SDS011;12046;44.702;10.622;2022-11-13T13:00:29;15.45;;;12.27;;
23730;SDS011;12046;44.702;10.622;2022-11-13T13:08:34;12.73;;;9.15;;
23730;SDS011;12046;44.702;10.622;2022-11-13T13:16:50;10.13;;;9.13;;
23730;SDS011;12046;44.702;10.622;2022-11-13T13:19:27;11.48;;;10.10;;
23730;SDS011;12046;44.702;10.622;2022-11-13T13:21:54;13.07;;;10.65;;
23730;SDS011;12046;44.702;10.622;2022-11-13T13:24:29;12.60;;;9.95;;
23730;SDS011;12046;44.702;10.622;2022-11-13T13:27:19;18.67;;;13.02;;
23730;SDS011;12046;44.702;10.622;2022-11-13T13:29:52;13.10;;;10.93;;
23730;SDS011;12046;44.702;10.622;2022-11-13T13:35:06;22.55;;;12.35;;
23730;SDS011;12046;44.702;10.622;2022-11-13T13:45:45;14.07;;;10.02;;
23730;SDS011;12046;44.702;10.622;2022-11-13T13:48:38;18.33;;;14.90;;
23730;SDS011;12046;44.702;10.622;2022-11-13T13:51:15;16.25;;;10.50;;
23730;SDS011;12046;44.702;10.622;2022-11-13T13:53:52;12.70;;;10.20;;
23730;SDS011;12046;44.702;10.622;2022-11-13T13:56:21;21.60;;;13.73;;
23730;SDS011;12046;44.702;10.622;2022-11-13T13:58:48;13.68;;;11.32;;
23730;SDS011;12046;44.702;10.622;2022-11-13T14:01:24;12.80;;;11.07;;
23730;SDS011;12046;44.702;10.622;2022-11-13T14:04:11;12.05;;;10.80;;
23730;SDS011;12046;44.702;10.622;2022-11-13T14:06:52;15.07;;;11.65;;
23730;SDS011;12046;44.702;10.622;2022-11-13T14:09:20;14.68;;;10.90;;
23730;SDS011;12046;44.702;10.622;2022-11-13T14:11:59;13.98;;;11.68;;
23730;SDS011;12046;44.702;10.622;2022-11-13T14:14:31;14.38;;;10.40;;
23730;SDS011;12046;44.702;10.622;2022-11-13T14:16:58;13.50;;;11.68;;
23730;SDS011;12046;44.702;10.622;2022-11-13T14:19:26;14.85;;;10.85;;
23730;SDS011;12046;44.702;10.622;2022-11-13T14:21:55;12.80;;;10.55;;
23730;SDS011;12046;44.702;10.622;2022-11-13T14:24:28;14.02;;;12.57;;
23730;SDS011;12046;44.702;10.622;2022-11-13T14:27:01;13.73;;;12.32;;
23730;SDS011;12046;44.702;10.622;2022-11-13T14:32:04;14.32;;;11.93;;
23730;SDS011;12046;44.702;10.622;2022-11-13T14:34:36;13.77;;;11.30;;
23730;SDS011;12046;44.702;10.622;2022-11-13T14:37:23;13.20;;;11.80;;
23730;SDS011;12046;44.702;10.622;2022-11-13T14:43:03;16.92;;;11.98;;
23730;SDS011;12046;44.702;10.622;2022-11-13T14:45:32;14.18;;;12.40;;
23730;SDS011;12046;44.702;10.622;2022-11-13T14:48:18;13.80;;;12.35;;
23730;SDS011;12046;44.702;10.622;2022-11-13T14:50:50;17.70;;;13.45;;
23730;SDS011;12046;44.702;10.622;2022-11-13T14:53:31;14.02;;;12.35;;
23730;SDS011;12046;44.702;10.622;2022-11-13T14:56:06;13.82;;;12.40;;
23730;SDS011;12046;44.702;10.622;2022-11-13T14:58:37;14.10;;;11.60;;
23730;SDS011;12046;44.702;10.622;2022-11-13T15:03:37;14.30;;;12.88;;
23730;SDS011;12046;44.702;10.622;2022-11-13T15:06:03;16.15;;;13.30;;
23730;SDS011;12046;44.702;10.622;2022-11-13T15:08:30;16.73;;;13.48;;
23730;SDS011;12046;44.702;10.622;2022-11-13T15:10:56;15.25;;;13.65;;
23730;SDS011;12046;44.702;10.622;2022-11-13T15:13:22;13.65;;;12.10;;
23730;SDS011;12046;44.702;10.622;2022-11-13T15:15:48;13.40;;;12.02;;
23730;SDS011;12046;44.702;10.622;2022-11-13T15:18:15;14.05;;;12.43;;
23730;SDS011;12046;44.702;10.622;2022-11-13T15:20:43;17.98;;;13.18;;
23730;SDS011;12046;44.702;10.622;2022-11-13T15:23:11;15.93;;;13.77;;
23730;SDS011;12046;44.702;10.622;2022-11-13T15:25:40;15.30;;;13.20;;
23730;SDS011;12046;44.702;10.622;2022-11-13T15:28:07;16.33;;;12.88;;
23730;SDS011;12046;44.702;10.622;2022-11-13T15:30:33;16.92;;;14.45;;
23730;SDS011;12046;44.702;10.622;2022-11-13T15:32:59;16.67;;;13.88;;
23730;SDS011;12046;44.702;10.622;2022-11-13T15:35:27;15.38;;;13.63;;
23730;SDS011;12046;44.702;10.622;2022-11-13T15:37:53;15.32;;;12.82;;
23730;SDS011;12046;44.702;10.622;2022-11-13T15:40:19;17.45;;;14.32;;
23730;SDS011;12046;44.702;10.622;2022-11-13T15:42:45;17.70;;;14.25;;
23730;SDS011;12046;44.702;10.622;2022-11-13T15:45:14;15.05;;;13.48;;
23730;SDS011;12046;44.702;10.622;2022-11-13T15:47:41;15.80;;;13.90;;
23730;SDS011;12046;44.702;10.622;2022-11-13T15:50:07;14.77;;;13.27;;
23730;SDS011;12046;44.702;10.622;2022-11-13T15:52:34;15.77;;;13.70;;
23730;SDS011;12046;44.702;10.622;2022-11-13T15:55:05;16.05;;;14.27;;
23730;SDS011;12046;44.702;10.622;2022-11-13T15:57:41;17.30;;;15.73;;